Buoy 46930

sailwx.info

Track history (hours):
 
Tides and Currents Weather Stations Pressure Air Temp Water Temp Dewpoint Dewpoint Depression Visibility Wind Speed Wind Dir Waves Ship Positions

Drifting buoy 46930

Last reported at 2016-Feb-10 05:00 UTC. Time now 2016-Feb-10 08:49 UTC.
Position N 18°54' W 138°28'.

Date/timePositionNaut miles runAvg speedWind from/ knotsBaromVisibWave heightAir tempDewpointWater temp
2016-Feb-10 05:00N 18°54' W 138°28'2 2.2
2016-Feb-10 04:00N 18°53' W 138°26'1 1.3
2016-Feb-10 03:00N 18°52' W 138°24'1 1.5
2016-Feb-10 02:00N 18°52' W 138°23'5 2.6
2016-Feb-10 00:00N 18°51' W 138°18'4 1.4
2016-Feb-09 21:00N 18°47' W 138°17'5 1.2
2016-Feb-09 17:00N 18°42' W 138°16'1 1.3
2016-Feb-09 16:00N 18°41' W 138°16'1 0.9
2016-Feb-09 15:00N 18°40' W 138°16'4 0.9
2016-Feb-09 11:00N 18°36' W 138°16'3 0.7
2016-Feb-09 07:00N 18°34' W 138°18'2 1.1
2016-Feb-09 05:00N 18°32' W 138°19'4 2.1
2016-Feb-09 03:00N 18°29' W 138°22'0 0.5
2016-Feb-09 02:00N 18°29' W 138°22'3 1.4
2016-Feb-09 00:00N 18°27' W 138°24'2 2.3
2016-Feb-08 23:00N 18°26' W 138°26'2 1.1
2016-Feb-08 21:00N 18°23' W 138°26'4 0.9
2016-Feb-08 17:00N 18°20' W 138°27'1 0.4
2016-Feb-08 14:00N 18°19' W 138°27'1 0.7
2016-Feb-08 13:00N 18°18' W 138°28'1 0.1
2016-Feb-08 07:00N 18°18' W 138°28'0 0.0
2016-Feb-08 06:00N 18°18' W 138°28'0 0.3
2016-Feb-08 05:00N 18°18' W 138°29'0 0.1
2016-Feb-08 04:00N 18°18' W 138°29'0 0.3
2016-Feb-08 03:00N 18°17' W 138°28'1 0.8
2016-Feb-08 02:00N 18°17' W 138°29'0 0.2
2016-Feb-08 01:00N 18°17' W 138°29'1 0.7
2016-Feb-08 00:00N 18°16' W 138°29'1 1.1
2016-Feb-07 23:00N 18°15' W 138°29'1 0.7
2016-Feb-07 22:00N 18°16' W 138°30'1 0.3
2016-Feb-07 19:00N 18°15' W 138°30'0 0.5
2016-Feb-07 18:00N 18°15' W 138°30'1 0.3
2016-Feb-07 15:00N 18°14' W 138°29'1 1.0
2016-Feb-07 14:00N 18°15' W 138°29'3 0.5
2016-Feb-07 07:00N 18°13' W 138°27'1 1.0
2016-Feb-07 06:00N 18°12' W 138°26'0 0.2
2016-Feb-07 05:00N 18°13' W 138°26'1 0.3
2016-Feb-07 03:00N 18°13' W 138°25'1 0.6
2016-Feb-07 02:00N 18°13' W 138°25'0 0.5
2016-Feb-07 01:00N 18°13' W 138°25'3 1.3
2016-Feb-06 23:00N 18°15' W 138°23'2 0.3
2016-Feb-06 18:00N 18°15' W 138°22'1 1.5
2016-Feb-06 17:00N 18°14' W 138°21'1 0.6
2016-Feb-06 16:00N 18°15' W 138°21'1 0.9
2016-Feb-06 15:00N 18°14' W 138°20'0 0.2
2016-Feb-06 14:00N 18°14' W 138°20'1 0.5
2016-Feb-06 12:00N 18°13' W 138°20'4 1.0
2016-Feb-06 08:00N 18°09' W 138°17'0 0.5
2016-Feb-06 07:00N 18°09' W 138°17'1 0.7
2016-Feb-06 06:00N 18°09' W 138°17'3 1.0
2016-Feb-06 03:00N 18°07' W 138°14'0 0.1
2016-Feb-06 02:00N 18°07' W 138°14'1 0.7
2016-Feb-06 00:00N 18°06' W 138°13'2 1.7
2016-Feb-05 23:00N 18°05' W 138°11'2 2.4
2016-Feb-05 22:00N 18°04' W 138°09'0 0.0
2016-Feb-05 20:00N 18°04' W 138°09'1 0.7
2016-Feb-05 19:00N 18°04' W 138°08'0 0.1
2016-Feb-05 18:00N 18°04' W 138°09'2 2.0
2016-Feb-05 17:00N 18°03' W 138°07'1 1.2
2016-Feb-05 16:00N 18°03' W 138°06'1 0.5
2016-Feb-05 15:00N 18°02' W 138°05'6 0.7
2016-Feb-05 07:00N 18°01' W 137°59'3 0.7
2016-Feb-05 03:00N 17°60' W 137°57'1 1.2
2016-Feb-05 02:00N 17°59' W 137°56'0 0.0
2016-Feb-05 00:00N 17°59' W 137°56'7 0.8
2016-Feb-04 16:00N 17°57' W 137°49'0 0.0
2016-Feb-04 14:00N 17°57' W 137°49'6 0.9
2016-Feb-04 07:00N 17°57' W 137°42'1 1.5
2016-Feb-04 06:00N 17°57' W 137°41'4 0.7
2016-Feb-04 01:00N 17°58' W 137°37'4 0.5
2016-Feb-03 17:00N 18°00' W 137°33'2 2.5
2016-Feb-03 16:00N 18°01' W 137°31'0 0.0
2016-Feb-03 15:00N 18°01' W 137°31'9 0.8
2016-Feb-03 04:00N 18°09' W 137°26'3 0.4
2016-Feb-02 20:00N 18°10' W 137°23'0 0.2
2016-Feb-02 18:00N 18°10' W 137°23'1 0.7
2016-Feb-02 17:00N 18°10' W 137°22'0 0.2
2016-Feb-02 15:00N 18°10' W 137°22'2 0.5
2016-Feb-02 11:00N 18°10' W 137°20'1 0.3
2016-Feb-02 07:00N 18°11' W 137°19'0 0.1
2016-Feb-02 04:00N 18°11' W 137°19'3 0.7
2016-Feb-02 00:00N 18°09' W 137°17'2 0.3
2016-Feb-01 19:00N 18°09' W 137°15'1 0.2
2016-Feb-01 16:00N 18°10' W 137°16'1 0.6
2016-Feb-01 15:00N 18°09' W 137°16'0 0.0
2016-Feb-01 14:00N 18°09' W 137°16'1 0.3
2016-Feb-01 11:00N 18°08' W 137°16'1 0.3
2016-Feb-01 07:00N 18°07' W 137°15'0 0.2
2016-Feb-01 06:00N 18°07' W 137°15'0 0.3
2016-Feb-01 05:00N 18°07' W 137°15'0 0.4
2016-Feb-01 04:00N 18°07' W 137°15'0 0.4
2016-Feb-01 03:00N 18°06' W 137°15'1 1.1
2016-Feb-01 02:00N 18°05' W 137°15'1 0.6
2016-Feb-01 00:00N 18°05' W 137°14'0 0.2
2016-Jan-31 23:00N 18°04' W 137°15'1 0.7
2016-Jan-31 21:00N 18°04' W 137°13'0 0.0
2016-Jan-31 20:00N 18°04' W 137°13'0 0.3
2016-Jan-31 19:00N 18°04' W 137°14'1 0.7
2016-Jan-31 18:00N 18°04' W 137°14'0 0.0
2016-Jan-31 17:00N 18°04' W 137°14'2 1.5
2016-Jan-31 16:00N 18°03' W 137°13'0 0.4
2016-Jan-31 15:00N 18°03' W 137°13'0 0.1
2016-Jan-31 14:00N 18°03' W 137°13'1 1.2
2016-Jan-31 13:00N 18°02' W 137°12'0 0.2
2016-Jan-31 11:00N 18°02' W 137°11'1 0.3
2016-Jan-31 07:00N 18°02' W 137°10'0 0.3
2016-Jan-31 06:00N 18°02' W 137°10'1 0.6
2016-Jan-31 05:00N 18°02' W 137°09'  
Track history (hours):
 
Tides and Currents Weather Stations Pressure Air Temp Water Temp Dewpoint Dewpoint Depression Visibility Wind Speed Wind Dir Waves Ship Positions

Drifting buoy 46930

Last reported at 2016-Feb-10 05:00 UTC. Time now 2016-Feb-10 08:49 UTC.
Position N 18°54' W 138°28'.

Date/timePositionNaut miles runAvg speedWind from/ knotsBaromVisibWave heightAir tempDewpointWater temp
2016-Feb-10 05:00N 18°54' W 138°28'2 2.2
2016-Feb-10 04:00N 18°53' W 138°26'1 1.3
2016-Feb-10 03:00N 18°52' W 138°24'1 1.5
2016-Feb-10 02:00N 18°52' W 138°23'5 2.6
2016-Feb-10 00:00N 18°51' W 138°18'4 1.4
2016-Feb-09 21:00N 18°47' W 138°17'5 1.2
2016-Feb-09 17:00N 18°42' W 138°16'1 1.3
2016-Feb-09 16:00N 18°41' W 138°16'1 0.9
2016-Feb-09 15:00N 18°40' W 138°16'4 0.9
2016-Feb-09 11:00N 18°36' W 138°16'3 0.7
2016-Feb-09 07:00N 18°34' W 138°18'2 1.1
2016-Feb-09 05:00N 18°32' W 138°19'4 2.1
2016-Feb-09 03:00N 18°29' W 138°22'0 0.5
2016-Feb-09 02:00N 18°29' W 138°22'3 1.4
2016-Feb-09 00:00N 18°27' W 138°24'2 2.3
2016-Feb-08 23:00N 18°26' W 138°26'2 1.1
2016-Feb-08 21:00N 18°23' W 138°26'4 0.9
2016-Feb-08 17:00N 18°20' W 138°27'1 0.4
2016-Feb-08 14:00N 18°19' W 138°27'1 0.7
2016-Feb-08 13:00N 18°18' W 138°28'1 0.1
2016-Feb-08 07:00N 18°18' W 138°28'0 0.0
2016-Feb-08 06:00N 18°18' W 138°28'0 0.3
2016-Feb-08 05:00N 18°18' W 138°29'0 0.1
2016-Feb-08 04:00N 18°18' W 138°29'0 0.3
2016-Feb-08 03:00N 18°17' W 138°28'1 0.8
2016-Feb-08 02:00N 18°17' W 138°29'0 0.2
2016-Feb-08 01:00N 18°17' W 138°29'1 0.7
2016-Feb-08 00:00N 18°16' W 138°29'1 1.1
2016-Feb-07 23:00N 18°15' W 138°29'1 0.7
2016-Feb-07 22:00N 18°16' W 138°30'1 0.3
2016-Feb-07 19:00N 18°15' W 138°30'0 0.5
2016-Feb-07 18:00N 18°15' W 138°30'1 0.3
2016-Feb-07 15:00N 18°14' W 138°29'1 1.0
2016-Feb-07 14:00N 18°15' W 138°29'3 0.5
2016-Feb-07 07:00N 18°13' W 138°27'1 1.0
2016-Feb-07 06:00N 18°12' W 138°26'0 0.2
2016-Feb-07 05:00N 18°13' W 138°26'1 0.3
2016-Feb-07 03:00N 18°13' W 138°25'1 0.6
2016-Feb-07 02:00N 18°13' W 138°25'0 0.5
2016-Feb-07 01:00N 18°13' W 138°25'3 1.3
2016-Feb-06 23:00N 18°15' W 138°23'2 0.3
2016-Feb-06 18:00N 18°15' W 138°22'1 1.5
2016-Feb-06 17:00N 18°14' W 138°21'1 0.6
2016-Feb-06 16:00N 18°15' W 138°21'1 0.9
2016-Feb-06 15:00N 18°14' W 138°20'0 0.2
2016-Feb-06 14:00N 18°14' W 138°20'1 0.5
2016-Feb-06 12:00N 18°13' W 138°20'4 1.0
2016-Feb-06 08:00N 18°09' W 138°17'0 0.5
2016-Feb-06 07:00N 18°09' W 138°17'1 0.7
2016-Feb-06 06:00N 18°09' W 138°17'3 1.0
2016-Feb-06 03:00N 18°07' W 138°14'0 0.1
2016-Feb-06 02:00N 18°07' W 138°14'1 0.7
2016-Feb-06 00:00N 18°06' W 138°13'2 1.7
2016-Feb-05 23:00N 18°05' W 138°11'2 2.4
2016-Feb-05 22:00N 18°04' W 138°09'0 0.0
2016-Feb-05 20:00N 18°04' W 138°09'1 0.7
2016-Feb-05 19:00N 18°04' W 138°08'0 0.1
2016-Feb-05 18:00N 18°04' W 138°09'2 2.0
2016-Feb-05 17:00N 18°03' W 138°07'1 1.2
2016-Feb-05 16:00N 18°03' W 138°06'1 0.5
2016-Feb-05 15:00N 18°02' W 138°05'6 0.7
2016-Feb-05 07:00N 18°01' W 137°59'3 0.7
2016-Feb-05 03:00N 17°60' W 137°57'1 1.2
2016-Feb-05 02:00N 17°59' W 137°56'0 0.0
2016-Feb-05 00:00N 17°59' W 137°56'7 0.8
2016-Feb-04 16:00N 17°57' W 137°49'0 0.0
2016-Feb-04 14:00N 17°57' W 137°49'6 0.9
2016-Feb-04 07:00N 17°57' W 137°42'1 1.5
2016-Feb-04 06:00N 17°57' W 137°41'4 0.7
2016-Feb-04 01:00N 17°58' W 137°37'4 0.5
2016-Feb-03 17:00N 18°00' W 137°33'2 2.5
2016-Feb-03 16:00N 18°01' W 137°31'0 0.0
2016-Feb-03 15:00N 18°01' W 137°31'9 0.8
2016-Feb-03 04:00N 18°09' W 137°26'3 0.4
2016-Feb-02 20:00N 18°10' W 137°23'0 0.2
2016-Feb-02 18:00N 18°10' W 137°23'1 0.7
2016-Feb-02 17:00N 18°10' W 137°22'0 0.2
2016-Feb-02 15:00N 18°10' W 137°22'2 0.5
2016-Feb-02 11:00N 18°10' W 137°20'1 0.3
2016-Feb-02 07:00N 18°11' W 137°19'0 0.1
2016-Feb-02 04:00N 18°11' W 137°19'3 0.7
2016-Feb-02 00:00N 18°09' W 137°17'2 0.3
2016-Feb-01 19:00N 18°09' W 137°15'1 0.2
2016-Feb-01 16:00N 18°10' W 137°16'1 0.6
2016-Feb-01 15:00N 18°09' W 137°16'0 0.0
2016-Feb-01 14:00N 18°09' W 137°16'1 0.3
2016-Feb-01 11:00N 18°08' W 137°16'1 0.3
2016-Feb-01 07:00N 18°07' W 137°15'0 0.2
2016-Feb-01 06:00N 18°07' W 137°15'0 0.3
2016-Feb-01 05:00N 18°07' W 137°15'0 0.4
2016-Feb-01 04:00N 18°07' W 137°15'0 0.4
2016-Feb-01 03:00N 18°06' W 137°15'1 1.1
2016-Feb-01 02:00N 18°05' W 137°15'1 0.6
2016-Feb-01 00:00N 18°05' W 137°14'0 0.2
2016-Jan-31 23:00N 18°04' W 137°15'1 0.7
2016-Jan-31 21:00N 18°04' W 137°13'0 0.0
2016-Jan-31 20:00N 18°04' W 137°13'0 0.3
2016-Jan-31 19:00N 18°04' W 137°14'1 0.7
2016-Jan-31 18:00N 18°04' W 137°14'0 0.0
2016-Jan-31 17:00N 18°04' W 137°14'2 1.5
2016-Jan-31 16:00N 18°03' W 137°13'0 0.4
2016-Jan-31 15:00N 18°03' W 137°13'0 0.1
2016-Jan-31 14:00N 18°03' W 137°13'1 1.2
2016-Jan-31 13:00N 18°02' W 137°12'0 0.2
2016-Jan-31 11:00N 18°02' W 137°11'1 0.3
2016-Jan-31 07:00N 18°02' W 137°10'0 0.3
2016-Jan-31 06:00N 18°02' W 137°10'1 0.6
2016-Jan-31 05:00N 18°02' W 137°09'  

Dump ship's entire track history